Time;durP1;ratioP1;P1;durP2;ratioP2;P2;SDS_P1;SDS_P2;PMS_P1;PMS_P2;Temp;Humidity;BMP_temperature;BMP_pressure;BME280_temperature;BME280_humidity;BME280_pressure;Samples;Min_cycle;Max_cycle;Signal;HPM_P1;HPM_P2
2023/07/26 00:00:19;;;;;;;7.93;5.80;;;14.00;37.20;;;;;;4956493;29;20180;-71
2023/07/26 00:02:44;;;;;;;8.43;6.30;;;14.00;36.20;;;;;;4956121;29;20257;-71
2023/07/26 00:05:10;;;;;;;8.30;6.50;;;14.00;35.60;;;;;;4956280;28;20646;-71
2023/07/26 00:07:35;;;;;;;7.80;7.00;;;13.90;37.10;;;;;;4956224;28;20177;-71
2023/07/26 00:10:01;;;;;;;12.43;6.87;;;14.00;36.70;;;;;;4955944;29;20302;-71
2023/07/26 00:12:26;;;;;;;10.90;7.80;;;14.00;38.00;;;;;;4955738;29;20619;-71
2023/07/26 00:14:53;;;;;;;8.17;7.30;;;13.90;38.30;;;;;;4956223;28;20171;-71
2023/07/26 00:17:18;;;;;;;9.70;7.70;;;13.80;37.90;;;;;;4955886;28;20171;-71
2023/07/26 00:19:44;;;;;;;9.10;6.93;;;13.80;36.70;;;;;;4956885;29;20419;-71
2023/07/26 00:22:10;;;;;;;13.87;6.17;;;13.90;37.00;;;;;;4955380;28;20248;-71
2023/07/26 00:24:36;;;;;;;10.17;7.67;;;13.90;36.60;;;;;;4955633;28;20180;-71
2023/07/26 00:27:01;;;;;;;7.30;6.00;;;13.90;36.80;;;;;;4955805;28;20530;-71
2023/07/26 00:29:27;;;;;;;8.50;7.70;;;13.90;35.40;;;;;;4955598;29;20210;-71
2023/07/26 00:31:52;;;;;;;8.13;7.07;;;13.90;37.50;;;;;;4955265;29;20746;-70
2023/07/26 00:34:18;;;;;;;7.40;6.20;;;13.80;35.50;;;;;;4955707;29;20587;-70
2023/07/26 00:36:44;;;;;;;7.83;7.03;;;13.80;36.20;;;;;;4955979;28;20629;-71
2023/07/26 00:39:10;;;;;;;8.60;6.57;;;13.80;36.20;;;;;;4954805;28;20423;-71
2023/07/26 00:41:35;;;;;;;6.80;5.83;;;13.90;34.40;;;;;;4955393;29;20201;-71
2023/07/26 00:44:01;;;;;;;8.97;7.00;;;13.90;34.40;;;;;;4955589;29;20183;-71
2023/07/26 00:46:27;;;;;;;9.53;8.17;;;13.80;34.30;;;;;;4955469;29;20272;-71
2023/07/26 00:48:53;;;;;;;7.33;6.57;;;13.80;36.20;;;;;;4955637;29;20611;-72
2023/07/26 00:51:21;;;;;;;6.77;6.13;;;13.80;37.70;;;;;;4955396;28;20197;-71
2023/07/26 00:53:47;;;;;;;10.20;7.40;;;13.80;39.00;;;;;;4955175;28;20422;-71
2023/07/26 00:56:12;;;;;;;10.20;8.47;;;13.80;39.70;;;;;;4955223;28;20415;-71
2023/07/26 00:58:39;;;;;;;8.40;7.57;;;13.80;39.70;;;;;;4955202;29;20238;-71
2023/07/26 01:01:05;;;;;;;13.53;6.37;;;13.80;39.50;;;;;;4955256;28;20606;-71
2023/07/26 01:03:31;;;;;;;10.53;7.10;;;13.90;38.90;;;;;;4954863;29;20765;-71
2023/07/26 01:06:39;;;;;;;10.20;5.57;;;13.80;39.50;;;;;;4954984;28;20267;-71
2023/07/26 01:09:16;;;;;;;7.20;6.50;;;13.90;40.60;;;;;;4954924;28;20219;-71
2023/07/26 01:12:06;;;;;;;7.30;6.00;;;13.90;39.70;;;;;;4955247;29;20459;-71
2023/07/26 01:14:42;;;;;;;6.00;4.70;;;14.00;41.10;;;;;;4953755;29;20416;-71
2023/07/26 01:17:08;;;;;;;7.37;6.07;;;13.90;40.00;;;;;;4955074;29;20418;-71
2023/07/26 01:19:33;;;;;;;6.30;5.03;;;13.80;41.40;;;;;;4954864;29;20502;-71
2023/07/26 01:21:59;;;;;;;7.60;5.87;;;13.80;43.60;;;;;;4954315;29;20208;-71
2023/07/26 01:24:25;;;;;;;7.73;6.20;;;13.70;44.60;;;;;;4954725;28;20180;-71
2023/07/26 01:26:51;;;;;;;9.20;7.17;;;13.70;45.30;;;;;;4955024;28;20415;-71
2023/07/26 01:29:16;;;;;;;7.47;6.40;;;13.70;44.30;;;;;;4954440;29;20960;-71
2023/07/26 01:31:42;;;;;;;10.33;7.27;;;13.60;44.50;;;;;;4954262;29;20259;-71
2023/07/26 01:34:09;;;;;;;7.33;6.50;;;13.60;45.40;;;;;;4954546;29;20234;-71
2023/07/26 01:36:35;;;;;;;10.97;5.97;;;13.70;44.70;;;;;;4954436;28;20652;-71
2023/07/26 01:39:04;;;;;;;8.40;5.90;;;13.60;47.00;;;;;;4954421;29;20447;-71
2023/07/26 01:41:30;;;;;;;7.43;5.93;;;13.40;46.10;;;;;;4954290;28;20807;-71
2023/07/26 01:43:56;;;;;;;5.77;4.77;;;13.30;43.80;;;;;;4954315;28;20421;-71
2023/07/26 01:46:22;;;;;;;6.03;5.30;;;13.10;35.90;;;;;;4954246;28;20418;-71
2023/07/26 01:48:48;;;;;;;8.90;5.30;;;13.00;38.70;;;;;;4954174;29;21058;-71
2023/07/26 01:51:13;;;;;;;7.30;6.20;;;13.10;41.00;;;;;;4953250;28;20180;-71
2023/07/26 01:53:39;;;;;;;8.50;5.43;;;13.10;41.40;;;;;;4953922;29;20280;-71
2023/07/26 01:56:05;;;;;;;6.70;6.10;;;13.10;41.40;;;;;;4954100;29;20534;-71
2023/07/26 01:58:31;;;;;;;8.30;6.50;;;13.00;42.80;;;;;;4954034;29;20187;-71
2023/07/26 02:00:56;;;;;;;7.27;6.57;;;12.90;43.90;;;;;;4954284;29;20423;-70
2023/07/26 02:03:22;;;;;;;7.20;5.13;;;12.90;43.90;;;;;;4953891;29;20187;-70
2023/07/26 02:05:48;;;;;;;5.90;5.30;;;12.80;39.90;;;;;;4954193;28;20219;-71
2023/07/26 02:08:16;;;;;;;4.93;4.20;;;12.70;38.60;;;;;;4953955;28;20542;-71
2023/07/26 02:10:42;;;;;;;6.30;5.20;;;12.70;38.60;;;;;;4954028;28;20178;-70
2023/07/26 02:13:08;;;;;;;7.40;4.80;;;12.60;38.90;;;;;;4953374;28;20832;-71
2023/07/26 02:15:34;;;;;;;6.80;5.80;;;12.70;38.60;;;;;;4953844;28;20185;-70
2023/07/26 02:17:59;;;;;;;7.80;6.00;;;12.70;40.30;;;;;;4953828;29;20445;-71
2023/07/26 02:20:25;;;;;;;8.77;6.00;;;12.70;40.60;;;;;;4953829;28;20206;-71
2023/07/26 02:22:51;;;;;;;5.63;4.30;;;12.80;42.60;;;;;;4953372;29;20785;-71
2023/07/26 02:25:17;;;;;;;8.83;5.47;;;12.80;41.70;;;;;;4953547;29;20189;-71
2023/07/26 02:27:42;;;;;;;5.80;5.10;;;12.90;42.50;;;;;;4953542;29;20440;-71
2023/07/26 02:30:08;;;;;;;6.00;5.37;;;12.90;39.20;;;;;;4953435;29;20572;-70
2023/07/26 02:32:34;;;;;;;5.30;4.30;;;12.80;38.70;;;;;;4953222;28;20192;-71
2023/07/26 02:34:59;;;;;;;5.83;5.20;;;12.80;38.70;;;;;;4953514;29;20414;-70
2023/07/26 02:37:25;;;;;;;6.07;4.90;;;12.80;38.70;;;;;;4953524;29;20189;-71
2023/07/26 02:39:51;;;;;;;6.33;5.73;;;12.90;38.80;;;;;;4953523;28;20555;-71
2023/07/26 02:42:17;;;;;;;7.70;4.93;;;12.90;38.40;;;;;;4953137;29;20544;-72
2023/07/26 02:44:42;;;;;;;5.57;4.27;;;12.90;38.30;;;;;;4953553;28;20700;-71
2023/07/26 02:47:08;;;;;;;5.60;4.70;;;12.90;38.70;;;;;;4953441;29;20441;-71
2023/07/26 02:49:33;;;;;;;5.73;5.13;;;12.90;38.80;;;;;;4953244;29;20244;-70
2023/07/26 02:51:59;;;;;;;6.27;5.67;;;12.90;38.80;;;;;;4952894;29;20285;-70
2023/07/26 02:54:24;;;;;;;7.80;5.93;;;12.90;39.60;;;;;;4953261;29;20638;-71
2023/07/26 02:56:50;;;;;;;5.57;5.07;;;13.00;39.30;;;;;;4953151;29;20179;-70
2023/07/26 02:59:18;;;;;;;5.63;4.53;;;13.00;39.10;;;;;;4953179;29;20238;-70
2023/07/26 03:01:44;;;;;;;6.63;4.97;;;13.00;38.70;;;;;;4952455;28;20692;-70
2023/07/26 03:04:10;;;;;;;5.33;4.70;;;13.00;38.90;;;;;;4953187;28;20448;-70
2023/07/26 03:06:36;;;;;;;6.33;5.43;;;12.90;38.60;;;;;;4953234;28;20450;-70
2023/07/26 03:09:01;;;;;;;5.77;4.63;;;12.90;38.70;;;;;;4953004;29;20466;-71
2023/07/26 03:11:27;;;;;;;7.83;4.13;;;12.90;36.80;;;;;;4953194;29;20204;-71
2023/07/26 03:13:52;;;;;;;5.90;4.40;;;12.80;37.50;;;;;;4953217;29;20174;-71
2023/07/26 03:16:18;;;;;;;5.00;4.43;;;12.80;38.70;;;;;;4952951;29;20202;-71
2023/07/26 03:18:43;;;;;;;8.20;4.50;;;12.80;39.10;;;;;;4952850;29;20648;-71
2023/07/26 03:21:09;;;;;;;6.20;5.23;;;12.90;40.00;;;;;;4952906;28;20193;-71
2023/07/26 03:23:35;;;;;;;5.67;3.17;;;12.90;38.80;;;;;;4952776;28;20189;-71
2023/07/26 03:26:03;;;;;;;5.00;4.20;;;12.90;37.90;;;;;;4952882;28;20395;-70
2023/07/26 03:28:30;;;;;;;5.17;4.67;;;12.90;39.80;;;;;;4952891;29;20222;-71
2023/07/26 03:30:55;;;;;;;7.50;4.20;;;13.00;41.30;;;;;;4952973;29;20429;-71
2023/07/26 03:33:21;;;;;;;5.10;4.60;;;13.00;40.00;;;;;;4952453;29;20437;-71
2023/07/26 03:35:46;;;;;;;8.57;6.07;;;13.00;39.20;;;;;;4952942;29;20190;-71
2023/07/26 03:38:12;;;;;;;5.67;4.80;;;12.90;40.30;;;;;;4953064;29;20238;-71
2023/07/26 03:40:39;;;;;;;5.57;5.00;;;12.80;38.80;;;;;;4952733;28;20184;-71
2023/07/26 03:43:05;;;;;;;12.20;5.07;;;12.80;38.70;;;;;;4952673;28;20865;-71
2023/07/26 03:45:30;;;;;;;4.90;4.40;;;12.80;40.40;;;;;;4953034;29;20481;-71
2023/07/26 03:47:56;;;;;;;5.13;4.63;;;12.80;41.60;;;;;;4952724;29;20180;-70
2023/07/26 03:50:21;;;;;;;5.57;4.87;;;12.80;41.60;;;;;;4952799;29;20175;-71
2023/07/26 03:52:47;;;;;;;7.00;4.80;;;12.90;40.80;;;;;;4952581;28;20635;-71
2023/07/26 03:55:14;;;;;;;6.37;3.63;;;13.00;40.00;;;;;;4952785;28;20171;-71
2023/07/26 03:57:39;;;;;;;4.17;3.73;;;13.00;38.80;;;;;;4952851;28;20174;-70
2023/07/26 04:00:05;;;;;;;5.80;4.70;;;13.00;39.50;;;;;;4953021;29;20416;-71
2023/07/26 04:02:31;;;;;;;5.80;5.00;;;12.90;41.10;;;;;;4952346;28;20210;-71
2023/07/26 04:04:57;;;;;;;6.00;5.30;;;13.00;40.10;;;;;;4953037;28;20417;-71
2023/07/26 04:07:23;;;;;;;5.83;4.67;;;13.00;40.50;;;;;;4952750;28;20842;-71
2023/07/26 04:09:49;;;;;;;5.50;4.47;;;13.00;38.20;;;;;;4952531;29;20501;-70
2023/07/26 04:12:15;;;;;;;5.30;4.73;;;12.90;39.40;;;;;;4952325;28;20237;-70
2023/07/26 04:14:40;;;;;;;4.77;4.17;;;13.00;38.90;;;;;;4954018;28;20186;-70
2023/07/26 04:17:06;;;;;;;5.50;4.60;;;13.00;39.30;;;;;;4956009;29;20174;-70
2023/07/26 04:19:32;;;;;;;5.23;4.10;;;12.90;40.60;;;;;;4955964;29;20181;-70
2023/07/26 04:21:57;;;;;;;7.17;4.97;;;12.90;41.00;;;;;;4955524;28;20358;-70
2023/07/26 04:24:23;;;;;;;5.53;5.03;;;12.90;39.60;;;;;;4955780;29;20186;-70
2023/07/26 04:26:49;;;;;;;9.83;4.77;;;13.00;40.20;;;;;;4955688;29;20195;-70
2023/07/26 04:29:15;;;;;;;6.20;4.63;;;13.00;39.90;;;;;;4955716;29;20964;-70
2023/07/26 04:31:41;;;;;;;5.80;4.50;;;13.10;39.60;;;;;;4955436;29;20685;-70
2023/07/26 04:34:06;;;;;;;5.13;4.63;;;13.20;39.90;;;;;;4956231;28;20421;-70
2023/07/26 04:36:32;;;;;;;6.00;5.40;;;13.30;39.10;;;;;;4973676;28;20268;-71
2023/07/26 04:38:57;;;;;;;5.97;5.03;;;13.30;37.40;;;;;;4975138;28;20177;-71
2023/07/26 04:41:23;;;;;;;4.60;4.10;;;13.30;36.50;;;;;;4974690;28;20222;-71
2023/07/26 04:43:48;;;;;;;5.10;4.40;;;13.40;35.70;;;;;;4974684;28;20321;-70
2023/07/26 04:46:16;;;;;;;5.57;4.83;;;13.40;36.30;;;;;;4974792;28;20563;-70
2023/07/26 04:48:41;;;;;;;7.10;4.60;;;13.30;37.50;;;;;;4974609;28;20272;-70
2023/07/26 04:51:07;;;;;;;6.87;3.80;;;13.40;37.50;;;;;;4974718;28;20661;-70
2023/07/26 04:53:32;;;;;;;6.20;5.13;;;13.30;37.10;;;;;;4974725;28;20644;-73
2023/07/26 04:55:58;;;;;;;4.67;3.97;;;13.30;38.60;;;;;;4974600;28;20637;-72
2023/07/26 04:58:23;;;;;;;5.00;4.47;;;13.40;37.00;;;;;;4974471;28;20604;-74
2023/07/26 05:00:50;;;;;;;5.67;4.20;;;13.40;34.00;;;;;;4974456;28;20656;-74
2023/07/26 05:03:15;;;;;;;6.13;4.90;;;13.40;34.70;;;;;;4974318;28;20280;-74
2023/07/26 05:05:41;;;;;;;5.93;5.27;;;13.30;35.10;;;;;;4974464;28;20500;-72
2023/07/26 05:08:07;;;;;;;5.10;4.30;;;13.40;35.00;;;;;;4974235;28;20586;-72
2023/07/26 05:10:33;;;;;;;7.33;4.33;;;13.50;33.70;;;;;;4974300;28;20175;-72
2023/07/26 05:12:59;;;;;;;4.53;3.73;;;13.70;34.20;;;;;;4972648;28;20458;-72
2023/07/26 05:15:25;;;;;;;4.40;4.00;;;13.90;32.20;;;;;;4974171;28;20175;-73
2023/07/26 05:17:51;;;;;;;5.07;3.80;;;14.00;30.90;;;;;;4974149;28;20454;-72
2023/07/26 05:20:17;;;;;;;5.73;4.10;;;14.00;29.20;;;;;;4974030;28;20495;-72
2023/07/26 05:22:43;;;;;;;5.50;4.83;;;14.10;29.70;;;;;;4973671;28;20449;-73
2023/07/26 05:25:09;;;;;;;5.27;4.77;;;14.00;29.50;;;;;;4973848;28;20769;-73
2023/07/26 05:27:34;;;;;;;5.63;4.60;;;14.00;29.50;;;;;;4974177;28;20185;-73
2023/07/26 05:30:00;;;;;;;11.87;7.60;;;14.10;29.50;;;;;;4973885;28;20510;-73
2023/07/26 05:32:26;;;;;;;12.37;6.87;;;14.10;29.50;;;;;;4974033;28;20206;-73
2023/07/26 05:34:56;;;;;;;7.10;5.97;;;14.30;28.30;;;;;;4973876;28;20183;-72
2023/07/26 05:37:22;;;;;;;6.60;5.07;;;14.20;28.20;;;;;;4973869;28;20441;-73
2023/07/26 05:39:51;;;;;;;7.10;5.23;;;14.10;26.90;;;;;;4973863;28;20832;-72
2023/07/26 05:42:17;;;;;;;7.50;4.97;;;14.10;27.20;;;;;;4973853;28;20430;-71
2023/07/26 05:44:42;;;;;;;5.63;4.47;;;14.20;28.00;;;;;;4974162;28;20435;-73
2023/07/26 05:47:11;;;;;;;6.90;5.10;;;14.20;26.80;;;;;;4973817;28;20187;-73
2023/07/26 05:49:42;;;;;;;8.70;5.20;;;14.30;28.60;;;;;;4973381;28;20197;-73
2023/07/26 05:52:08;;;;;;;8.03;5.03;;;14.40;27.00;;;;;;4973384;28;20443;-73
2023/07/26 05:54:34;;;;;;;6.53;5.83;;;14.40;27.60;;;;;;4973561;28;20518;-73
2023/07/26 05:56:59;;;;;;;5.80;5.20;;;14.50;25.70;;;;;;4973512;28;20508;-73
2023/07/26 05:59:25;;;;;;;5.70;5.10;;;14.40;25.60;;;;;;4973700;28;20255;-72
2023/07/26 06:01:51;;;;;;;10.40;5.30;;;14.30;26.10;;;;;;4973546;28;20556;-73
2023/07/26 06:04:16;;;;;;;8.07;5.70;;;14.40;26.50;;;;;;4971962;28;20184;-73
2023/07/26 06:06:42;;;;;;;7.23;5.33;;;14.40;25.90;;;;;;4973330;28;20420;-73
2023/07/26 06:09:09;;;;;;;5.07;4.53;;;14.40;26.70;;;;;;4973439;28;20216;-73
2023/07/26 06:11:34;;;;;;;10.37;4.87;;;14.50;25.70;;;;;;4972920;28;20289;-72
2023/07/26 06:14:00;;;;;;;7.17;5.50;;;14.60;26.20;;;;;;4967133;28;21169;-73
2023/07/26 06:16:27;;;;;;;4.70;4.23;;;14.70;25.50;;;;;;4947758;28;20248;-72
2023/07/26 06:18:52;;;;;;;8.50;4.70;;;14.50;25.60;;;;;;4952724;29;20276;-74
2023/07/26 06:21:19;;;;;;;6.03;5.43;;;14.50;25.50;;;;;;4953867;29;21021;-69
2023/07/26 06:23:44;;;;;;;6.77;5.53;;;14.60;25.40;;;;;;4953492;28;20181;-70
2023/07/26 06:26:11;;;;;;;13.07;6.23;;;14.40;25.00;;;;;;4953861;28;20973;-69
2023/07/26 06:28:36;;;;;;;6.20;5.60;;;14.30;25.50;;;;;;4953310;28;20571;-70
2023/07/26 06:31:02;;;;;;;4.90;4.17;;;14.40;26.90;;;;;;4953348;28;20201;-70
2023/07/26 06:33:28;;;;;;;5.43;4.90;;;14.40;25.90;;;;;;4953357;29;20301;-70
2023/07/26 06:35:54;;;;;;;6.50;3.93;;;14.50;26.00;;;;;;4936327;29;20711;-70
2023/07/26 06:38:27;;;;;;;5.53;4.70;;;14.40;24.40;;;;;;4933974;29;20245;-70
2023/07/26 06:40:53;;;;;;;5.37;4.87;;;14.60;26.30;;;;;;4953204;28;20451;-70
2023/07/26 06:43:18;;;;;;;4.60;3.73;;;14.80;26.20;;;;;;4949223;29;20808;-70
2023/07/26 06:45:46;;;;;;;4.80;4.30;;;14.90;22.80;;;;;;4950207;29;20238;-70
2023/07/26 06:48:11;;;;;;;4.77;4.23;;;15.40;23.20;;;;;;4949227;28;20659;-70
2023/07/26 06:50:41;;;;;;;4.23;3.10;;;16.10;20.70;;;;;;4949565;28;20473;-69
2023/07/26 06:53:06;;;;;;;8.63;4.73;;;16.70;18.70;;;;;;4953219;29;20563;-70
2023/07/26 06:55:33;;;;;;;9.00;4.17;;;17.40;14.20;;;;;;4953398;29;20508;-71
2023/07/26 06:57:59;;;;;;;4.23;3.67;;;17.30;10.30;;;;;;4953243;28;20244;-71
2023/07/26 07:00:25;;;;;;;4.03;3.60;;;17.40;11.60;;;;;;4952982;28;20445;-69
2023/07/26 07:02:57;;;;;;;4.07;3.60;;;17.30;11.70;;;;;;4952395;28;20205;-71
2023/07/26 07:05:23;;;;;;;3.20;2.90;;;17.90;11.10;;;;;;4953115;29;20205;-71
2023/07/26 07:07:49;;;;;;;5.70;3.20;;;18.20;8.80;;;;;;4953906;28;20453;-72
2023/07/26 07:10:14;;;;;;;3.87;3.50;;;18.30;8.80;;;;;;4952966;29;20504;-71
2023/07/26 07:12:40;;;;;;;3.70;2.93;;;18.50;9.00;;;;;;4945518;29;20237;-71
2023/07/26 07:15:07;;;;;;;4.87;3.63;;;19.20;7.10;;;;;;4955239;28;20174;-72
2023/07/26 07:17:32;;;;;;;5.20;3.17;;;19.30;6.30;;;;;;4953982;29;20449;-71
2023/07/26 07:19:59;;;;;;;4.70;3.30;;;18.90;5.00;;;;;;4953076;29;20421;-71
2023/07/26 07:22:25;;;;;;;3.47;3.17;;;18.40;6.20;;;;;;4952791;28;20445;-71
2023/07/26 07:24:52;;;;;;;5.83;3.30;;;18.10;7.90;;;;;;4953069;28;20432;-74
2023/07/26 07:27:18;;;;;;;6.73;4.00;;;17.70;7.80;;;;;;4953580;28;20872;-71
2023/07/26 07:29:44;;;;;;;9.23;4.40;;;17.40;9.50;;;;;;4952703;28;20815;-71
2023/07/26 07:32:10;;;;;;;4.53;3.20;;;17.40;10.50;;;;;;4948525;28;20461;-71
2023/07/26 07:34:35;;;;;;;4.37;2.90;;;17.20;10.10;;;;;;4951981;29;20182;-71
2023/07/26 07:37:01;;;;;;;5.90;3.47;;;17.00;10.60;;;;;;4953142;29;20189;-71
2023/07/26 07:39:26;;;;;;;5.17;4.33;;;16.90;13.70;;;;;;4951713;29;20245;-71
2023/07/26 07:41:52;;;;;;;4.73;3.73;;;16.90;14.40;;;;;;4952665;29;20206;-71
2023/07/26 07:44:17;;;;;;;4.07;3.67;;;17.20;13.80;;;;;;4952764;29;20209;-71
2023/07/26 07:46:44;;;;;;;5.00;3.97;;;17.70;12.50;;;;;;4952930;28;20213;-71
2023/07/26 07:49:10;;;;;;;4.57;3.83;;;18.10;9.30;;;;;;4955109;28;20209;-71
2023/07/26 07:51:35;;;;;;;6.10;3.97;;;18.10;9.80;;;;;;4956426;29;20492;-71
2023/07/26 07:54:01;;;;;;;6.67;3.53;;;17.60;10.50;;;;;;4956469;28;20204;-71
2023/07/26 07:56:26;;;;;;;4.20;3.80;;;17.40;11.30;;;;;;4956645;28;20229;-71
2023/07/26 07:58:52;;;;;;;4.60;4.13;;;17.10;12.40;;;;;;4957084;28;20632;-71
2023/07/26 08:01:17;;;;;;;4.50;4.10;;;16.90;12.40;;;;;;4956575;29;20710;-71
2023/07/26 08:03:43;;;;;;;9.97;4.20;;;16.70;14.30;;;;;;4956180;29;20174;-71
2023/07/26 08:06:09;;;;;;;6.77;3.43;;;16.50;14.10;;;;;;4956783;29;20559;-71
2023/07/26 08:08:35;;;;;;;8.10;4.60;;;16.30;14.90;;;;;;4956414;28;20285;-72
2023/07/26 08:11:02;;;;;;;5.63;4.03;;;15.90;17.20;;;;;;4955959;28;20421;-72
2023/07/26 08:13:28;;;;;;;5.27;4.50;;;15.60;18.60;;;;;;4955860;29;20174;-70
2023/07/26 08:15:57;;;;;;;7.90;4.20;;;15.30;20.40;;;;;;4956119;29;20416;-70
2023/07/26 08:18:22;;;;;;;6.13;3.93;;;15.00;22.00;;;;;;4956133;28;20174;-71
2023/07/26 08:20:48;;;;;;;6.80;4.47;;;14.80;25.10;;;;;;4955960;29;20424;-72
2023/07/26 08:23:13;;;;;;;6.10;4.10;;;14.50;24.70;;;;;;4955648;29;20204;-72
2023/07/26 08:25:39;;;;;;;4.40;3.57;;;13.90;26.70;;;;;;4954814;29;20306;-72
2023/07/26 08:28:05;;;;;;;7.07;5.30;;;13.70;30.20;;;;;;4955843;29;20584;-72
2023/07/26 08:30:30;;;;;;;6.90;4.10;;;13.30;32.90;;;;;;4956173;29;20424;-72
2023/07/26 08:32:56;;;;;;;4.73;3.60;;;13.20;33.80;;;;;;4955532;29;20244;-72
2023/07/26 08:35:22;;;;;;;4.67;4.13;;;13.10;33.70;;;;;;4955949;28;20201;-72
2023/07/26 08:37:47;;;;;;;5.13;4.20;;;12.90;33.60;;;;;;4955692;28;20174;-72
2023/07/26 08:40:13;;;;;;;11.57;4.20;;;12.80;31.80;;;;;;4955670;29;20496;-72
2023/07/26 08:42:39;;;;;;;7.57;4.90;;;12.80;34.10;;;;;;4955638;29;20689;-76
2023/07/26 08:45:06;;;;;;;8.73;5.07;;;12.90;34.20;;;;;;4956002;28;20178;-75
2023/07/26 08:47:34;;;;;;;5.07;4.10;;;13.00;36.00;;;;;;4954512;29;20856;-75
2023/07/26 08:50:02;;;;;;;10.33;5.73;;;13.10;35.20;;;;;;4955719;28;20959;-75
2023/07/26 08:52:28;;;;;;;9.03;4.90;;;13.10;31.90;;;;;;4955662;28;20456;-74
2023/07/26 08:54:55;;;;;;;4.63;4.13;;;13.10;33.40;;;;;;4955541;29;20422;-73
2023/07/26 08:57:21;;;;;;;6.97;4.80;;;13.10;34.80;;;;;;4955617;28;20441;-73
2023/07/26 08:59:47;;;;;;;9.93;5.30;;;12.90;36.00;;;;;;4954876;28;20422;-73
2023/07/26 09:02:15;;;;;;;8.33;4.53;;;12.60;30.40;;;;;;4955061;29;20588;-73
2023/07/26 09:04:41;;;;;;;6.00;3.77;;;12.60;34.20;;;;;;4955342;28;20237;-74
2023/07/26 09:07:06;;;;;;;4.97;4.50;;;12.70;34.10;;;;;;4955156;28;20426;-74
2023/07/26 09:09:33;;;;;;;6.50;4.10;;;12.70;33.40;;;;;;4954905;28;20667;-74
2023/07/26 09:12:00;;;;;;;4.50;3.33;;;12.80;36.60;;;;;;4954781;28;20589;-73
2023/07/26 09:14:29;;;;;;;5.67;3.20;;;12.80;35.70;;;;;;4955091;28;20959;-74
2023/07/26 09:16:59;;;;;;;5.10;3.40;;;12.80;33.40;;;;;;4954939;28;20793;-73
2023/07/26 09:19:29;;;;;;;4.83;3.90;;;12.80;34.40;;;;;;4954924;28;20428;-72
2023/07/26 09:22:00;;;;;;;3.93;3.53;;;13.00;36.30;;;;;;4950995;28;20915;-74
2023/07/26 09:24:39;;;;;;;5.10;3.63;;;13.10;35.80;;;;;;4950286;28;20440;-73
2023/07/26 09:27:12;;;;;;;4.13;3.77;;;13.10;32.80;;;;;;4950848;28;20509;-74
2023/07/26 09:29:39;;;;;;;4.10;3.63;;;13.10;33.70;;;;;;4950546;28;20469;-74
2023/07/26 09:32:06;;;;;;;4.70;3.40;;;13.30;31.00;;;;;;4954020;28;20518;-77
2023/07/26 09:34:32;;;;;;;5.43;2.60;;;13.50;30.40;;;;;;4954833;28;20422;-76
2023/07/26 09:36:59;;;;;;;4.57;2.63;;;13.80;27.10;;;;;;4955004;29;20428;-75
2023/07/26 09:39:26;;;;;;;3.00;2.37;;;13.80;27.10;;;;;;4956547;28;20273;-75
2023/07/26 09:42:08;;;;;;;4.70;2.33;;;13.90;25.10;;;;;;4955668;28;20446;-75
2023/07/26 09:44:38;;;;;;;5.90;3.00;;;14.00;25.20;;;;;;4955398;28;20951;-76
2023/07/26 09:47:04;;;;;;;7.23;2.93;;;14.10;23.00;;;;;;4954810;28;20426;-75
2023/07/26 09:49:31;;;;;;;3.33;2.83;;;14.00;22.70;;;;;;4954823;28;20560;-76
2023/07/26 09:52:01;;;;;;;7.37;2.97;;;14.00;23.80;;;;;;4954765;28;20844;-76
2023/07/26 09:54:28;;;;;;;3.10;2.40;;;14.10;26.30;;;;;;4955176;28;20262;-76
2023/07/26 09:56:55;;;;;;;5.77;2.83;;;14.40;25.60;;;;;;4954798;28;20560;-76
2023/07/26 09:59:25;;;;;;;5.50;3.90;;;14.80;25.80;;;;;;4954933;28;20930;-76
2023/07/26 10:01:52;;;;;;;3.90;3.40;;;15.60;26.40;;;;;;4954978;28;20512;-76
2023/07/26 10:04:39;;;;;;;4.50;2.87;;;15.90;24.90;;;;;;4954604;28;20436;-73
2023/07/26 10:07:10;;;;;;;3.77;2.43;;;16.00;19.70;;;;;;4954627;28;20810;-75
2023/07/26 10:09:40;;;;;;;4.23;2.60;;;16.60;21.00;;;;;;4952995;28;20465;-76
2023/07/26 10:12:08;;;;;;;5.83;2.63;;;17.00;17.10;;;;;;4953388;28;20548;-76
2023/07/26 10:14:35;;;;;;;4.07;3.10;;;17.40;16.10;;;;;;4954854;28;20465;-76
2023/07/26 10:17:03;;;;;;;3.80;1.63;;;18.00;15.20;;;;;;4955214;28;20472;-76
2023/07/26 10:19:30;;;;;;;5.70;2.90;;;18.20;9.00;;;;;;4955240;28;20472;-75
2023/07/26 10:21:57;;;;;;;3.77;1.67;;;18.30;6.70;;;;;;4954450;28;20441;-76
2023/07/26 10:24:24;;;;;;;3.33;1.90;;;18.00;8.00;;;;;;4954919;28;20418;-75
2023/07/26 10:26:51;;;;;;;2.20;1.50;;;17.30;9.70;;;;;;4954633;28;20899;-75
2023/07/26 10:29:18;;;;;;;4.40;2.30;;;16.70;9.40;;;;;;4955171;28;20560;-75
2023/07/26 10:31:44;;;;;;;3.03;1.43;;;16.40;11.90;;;;;;4953330;29;20448;-76
2023/07/26 10:34:19;;;;;;;9.20;2.70;;;16.20;13.90;;;;;;4955059;29;20421;-77
2023/07/26 10:36:44;;;;;;;4.00;2.43;;;15.80;17.60;;;;;;4956743;28;20412;-73
2023/07/26 10:39:12;;;;;;;3.00;1.83;;;15.70;18.30;;;;;;4954484;29;20428;-72
2023/07/26 10:41:47;;;;;;;4.93;2.70;;;15.60;18.50;;;;;;4952832;29;20551;-73
2023/07/26 10:44:13;;;;;;;3.00;1.77;;;15.50;17.90;;;;;;4954491;28;20452;-71
2023/07/26 10:47:03;;;;;;;4.63;2.37;;;15.60;19.40;;;;;;4951271;28;20477;-72
2023/07/26 10:49:30;;;;;;;9.67;3.00;;;15.50;19.70;;;;;;4951080;29;20210;-71
2023/07/26 10:52:04;;;;;;;4.10;2.30;;;15.70;18.70;;;;;;4953922;28;20446;-71
2023/07/26 10:54:49;;;;;;;5.77;2.63;;;15.90;18.70;;;;;;4954375;28;20864;-73
2023/07/26 10:57:26;;;;;;;3.37;2.10;;;16.10;18.30;;;;;;4953960;28;20449;-71
2023/07/26 11:00:09;;;;;;;7.33;3.07;;;16.60;17.50;;;;;;4953623;29;20536;-73
2023/07/26 11:02:36;;;;;;;4.43;2.93;;;16.90;15.70;;;;;;4954667;29;20805;-71
2023/07/26 11:05:09;;;;;;;2.93;2.00;;;16.90;16.30;;;;;;4948017;28;20434;-72
2023/07/26 11:08:10;;;;;;;2.50;2.07;;;16.80;18.30;;;;;;4940795;29;20517;-71
2023/07/26 11:10:38;;;;;;;3.40;2.57;;;17.30;15.10;;;;;;4892799;29;20447;-72
2023/07/26 11:13:12;;;;;;;4.07;3.70;;;16.90;13.30;;;;;;4926657;29;20516;-71
2023/07/26 11:15:43;;;;;;;4.97;3.13;;;16.60;14.20;;;;;;4935076;29;20422;-72
2023/07/26 11:18:10;;;;;;;3.80;2.90;;;16.50;15.40;;;;;;4935170;29;20419;-72
2023/07/26 11:20:55;;;;;;;3.43;3.13;;;16.40;15.90;;;;;;4933630;29;20486;-71
2023/07/26 11:23:23;;;;;;;3.80;3.10;;;16.60;17.30;;;;;;4952374;28;20977;-71
2023/07/26 11:25:51;;;;;;;3.40;2.33;;;17.20;16.10;;;;;;4954308;29;20527;-71
2023/07/26 11:28:17;;;;;;;4.10;3.70;;;17.30;17.40;;;;;;4956416;28;20433;-72
2023/07/26 11:30:53;;;;;;;6.23;2.83;;;17.60;18.30;;;;;;4972583;28;20436;-71
2023/07/26 11:33:41;;;;;;;11.43;2.73;;;18.20;15.30;;;;;;4957140;28;20437;-71
2023/07/26 11:36:08;;;;;;;3.47;2.50;;;18.20;13.80;;;;;;4957677;28;20428;-71
2023/07/26 11:38:34;;;;;;;6.10;2.67;;;18.70;13.60;;;;;;4957616;29;20422;-71
2023/07/26 11:41:00;;;;;;;6.60;2.60;;;19.20;11.60;;;;;;4954107;28;20428;-72
2023/07/26 11:43:27;;;;;;;3.93;2.67;;;19.60;11.20;;;;;;4938323;29;20497;-70
2023/07/26 11:45:55;;;;;;;3.33;1.60;;;20.30;7.10;;;;;;4942318;29;20418;-72
2023/07/26 11:48:21;;;;;;;2.93;1.70;;;20.10;6.40;;;;;;4956676;28;20448;-71
2023/07/26 11:50:46;;;;;;;5.03;1.90;;;19.90;3.70;;;;;;4956910;29;20414;-71
2023/07/26 11:53:14;;;;;;;1.87;1.33;;;20.30;1.40;;;;;;4956574;28;20225;-72
2023/07/26 11:55:41;;;;;;;2.20;1.70;;;20.30;1.80;;;;;;4957578;28;20182;-73
2023/07/26 11:58:11;;;;;;;3.03;1.97;;;20.60;3.30;;;;;;4957498;29;20452;-72
2023/07/26 12:00:46;;;;;;;2.33;1.40;;;20.60;3.00;;;;;;4957022;29;20409;-72
2023/07/26 12:03:12;;;;;;;2.43;1.83;;;20.10;1.00;;;;;;4956872;28;20935;-72
2023/07/26 12:05:43;;;;;;;2.53;1.50;;;20.00;1.40;;;;;;4957374;29;20473;-72
2023/07/26 12:08:10;;;;;;;3.33;2.57;;;19.80;2.10;;;;;;4957468;28;20167;-72
2023/07/26 12:10:38;;;;;;;3.10;1.60;;;20.20;3.40;;;;;;4957779;29;20461;-72
2023/07/26 12:13:09;;;;;;;4.27;1.90;;;19.50;1.00;;;;;;4958916;29;20469;-72
2023/07/26 12:15:56;;;;;;;2.50;1.73;;;19.50;4.70;;;;;;4958174;28;20758;-72
2023/07/26 12:18:26;;;;;;;2.83;1.63;;;18.80;2.30;;;;;;4956042;28;20448;-72
2023/07/26 12:21:03;;;;;;;2.60;1.60;;;18.10;1.60;;;;;;4956549;28;20461;-72
2023/07/26 12:23:49;;;;;;;2.23;1.63;;;17.60;4.70;;;;;;4955177;28;20420;-72
2023/07/26 12:26:15;;;;;;;1.83;1.23;;;17.60;3.90;;;;;;4955092;29;20410;-72
2023/07/26 12:28:42;;;;;;;5.57;1.93;;;17.50;5.80;;;;;;4956288;29;20475;-72
2023/07/26 12:31:15;;;;;;;2.90;1.57;;;17.80;5.40;;;;;;4956635;28;20178;-72
2023/07/26 12:34:00;;;;;;;2.30;1.80;;;17.90;4.30;;;;;;4956678;29;20774;-71
2023/07/26 12:36:47;;;;;;;2.30;1.50;;;18.20;1.00;;;;;;4952488;28;20827;-70
2023/07/26 12:39:14;;;;;;;3.10;2.33;;;18.40;1.90;;;;;;4956122;28;20706;-71
2023/07/26 12:41:42;;;;;;;3.90;1.50;;;18.60;3.00;;;;;;4956016;28;20460;-71
2023/07/26 12:44:07;;;;;;;2.37;1.50;;;18.80;2.40;;;;;;4956041;28;20473;-71
2023/07/26 12:46:34;;;;;;;4.30;2.47;;;18.70;1.00;;;;;;4955850;28;20426;-71
2023/07/26 12:48:59;;;;;;;4.30;1.80;;;18.60;1.00;;;;;;4955765;28;20209;-71